Time;durP1;ratioP1;P1;durP2;ratioP2;P2;SDS_P1;SDS_P2;PMS_P1;PMS_P2;Temp;Humidity;BMP_temperature;BMP_pressure;BME280_temperature;BME280_humidity;BME280_pressure;Samples;Min_cycle;Max_cycle;Signal;HPM_P1;HPM_P2
2024/01/05 00:00:09;;;;;;;18.45;5.40;;;;;;;6.52;100.00;99858.28;4994212;28;20046;-70
2024/01/05 00:02:37;;;;;;;18.90;6.03;;;;;;;6.55;100.00;99857.38;4997528;28;20049;-70
2024/01/05 00:05:04;;;;;;;19.10;4.78;;;;;;;6.55;100.00;99850.34;5000320;28;20057;-70
2024/01/05 00:07:32;;;;;;;20.42;5.15;;;;;;;6.57;100.00;99848.56;4991636;28;20048;-70
2024/01/05 00:09:59;;;;;;;17.75;4.43;;;;;;;6.54;100.00;99846.03;5008324;28;20042;-71
2024/01/05 00:12:26;;;;;;;20.10;5.30;;;;;;;6.55;100.00;99836.41;5005498;28;20072;-70
2024/01/05 00:14:53;;;;;;;19.48;4.80;;;;;;;6.56;100.00;99830.28;4991153;28;20058;-70
2024/01/05 00:17:20;;;;;;;15.70;4.68;;;;;;;6.56;100.00;99844.22;4987121;28;20039;-70
2024/01/05 00:19:47;;;;;;;21.13;5.00;;;;;;;6.61;100.00;99844.09;4987006;28;20105;-70
2024/01/05 00:22:15;;;;;;;16.17;5.13;;;;;;;6.64;100.00;99838.75;4997167;28;20603;-71
2024/01/05 00:24:42;;;;;;;24.35;5.35;;;;;;;6.67;100.00;99836.03;4998767;28;20106;-71
2024/01/05 00:27:09;;;;;;;21.50;5.28;;;;;;;6.68;100.00;99827.28;4992412;28;20046;-71
2024/01/05 00:29:37;;;;;;;20.67;5.43;;;;;;;6.67;100.00;99821.19;4996298;28;20042;-71
2024/01/05 00:32:04;;;;;;;20.35;4.88;;;;;;;6.67;100.00;99818.56;5001123;28;20157;-71
2024/01/05 00:34:32;;;;;;;20.15;5.10;;;;;;;6.70;100.00;99811.53;4988179;28;20141;-70
2024/01/05 00:36:59;;;;;;;20.98;4.90;;;;;;;6.67;100.00;99801.97;4996121;28;20042;-70
2024/01/05 00:39:26;;;;;;;19.48;5.28;;;;;;;6.66;100.00;99797.69;4989142;28;20054;-70
2024/01/05 00:41:53;;;;;;;18.50;5.13;;;;;;;6.66;100.00;99793.28;4988170;28;20042;-70
2024/01/05 00:44:20;;;;;;;17.20;5.32;;;;;;;6.66;100.00;99797.69;4993195;28;20048;-70
2024/01/05 00:46:47;;;;;;;17.88;5.32;;;;;;;6.64;100.00;99795.09;5000120;28;20589;-72
2024/01/05 00:49:14;;;;;;;17.40;5.35;;;;;;;6.67;100.00;99808.09;5000183;28;20046;-72
2024/01/05 00:51:42;;;;;;;16.10;5.38;;;;;;;6.68;100.00;99790.59;4997259;28;20154;-72
2024/01/05 00:54:09;;;;;;;21.00;5.60;;;;;;;6.71;100.00;99798.38;5006009;28;20045;-72
2024/01/05 00:56:36;;;;;;;18.88;5.22;;;;;;;6.72;100.00;99789.63;5003498;28;20168;-72
2024/01/05 00:59:05;;;;;;;19.75;5.28;;;;;;;6.76;100.00;99785.13;4990602;28;20046;-73
2024/01/05 01:01:32;;;;;;;17.60;4.70;;;;;;;6.77;100.00;99779.00;4997892;28;20129;-72
2024/01/05 01:04:00;;;;;;;19.23;5.05;;;;;;;6.77;100.00;99782.44;4971892;28;20175;-72
2024/01/05 01:06:27;;;;;;;18.63;4.60;;;;;;;6.79;100.00;99772.78;4988076;28;20597;-72
2024/01/05 01:08:54;;;;;;;16.75;4.32;;;;;;;6.82;100.00;99772.69;4988818;28;20517;-70
2024/01/05 01:11:22;;;;;;;17.60;4.28;;;;;;;6.87;100.00;99774.34;4987474;28;20043;-70
2024/01/05 01:13:54;;;;;;;15.90;4.07;;;;;;;6.91;100.00;99773.31;4997783;28;20042;-70
2024/01/05 01:16:21;;;;;;;19.17;4.43;;;;;;;6.95;100.00;99772.31;4985107;28;20052;-70
2024/01/05 01:18:48;;;;;;;15.35;3.80;;;;;;;6.97;100.00;99776.59;5004135;28;20163;-70
2024/01/05 01:21:16;;;;;;;15.35;3.83;;;;;;;7.01;100.00;99766.88;4988327;28;20380;-70
2024/01/05 01:23:43;;;;;;;22.05;4.50;;;;;;;7.05;100.00;99760.63;4975663;28;20418;-71
2024/01/05 01:26:10;;;;;;;13.27;4.20;;;;;;;7.08;100.00;99764.91;4990752;28;20058;-71
2024/01/05 01:28:37;;;;;;;16.98;3.97;;;;;;;7.11;100.00;99767.44;5001643;28;20046;-71
2024/01/05 01:31:04;;;;;;;18.63;3.95;;;;;;;7.11;100.00;99763.03;4987082;28;20120;-71
2024/01/05 01:33:31;;;;;;;16.23;4.07;;;;;;;7.12;100.00;99763.91;4998422;28;20046;-71
2024/01/05 01:35:59;;;;;;;17.45;4.13;;;;;;;7.14;100.00;99755.06;4984992;28;20042;-71
2024/01/05 01:38:26;;;;;;;14.13;3.85;;;;;;;7.15;100.00;99759.41;4987965;28;20064;-71
2024/01/05 01:40:55;;;;;;;15.40;3.60;;;;;;;7.16;100.00;99760.25;4988680;28;20129;-71
2024/01/05 01:43:26;;;;;;;14.18;4.13;;;;;;;7.19;100.00;99764.53;4998120;28;20089;-72
2024/01/05 01:45:57;;;;;;;16.23;3.72;;;;;;;7.18;100.00;99757.56;4995780;28;20042;-72
2024/01/05 01:48:25;;;;;;;12.55;4.22;;;;;;;7.20;100.00;99756.63;4992929;28;20053;-71
2024/01/05 01:50:55;;;;;;;14.82;3.88;;;;;;;7.22;100.00;99748.72;5000389;28;20065;-71
2024/01/05 01:53:26;;;;;;;15.38;3.95;;;;;;;7.23;100.00;99750.44;4985866;28;20046;-71
2024/01/05 01:55:55;;;;;;;15.07;3.90;;;;;;;7.22;100.00;99746.09;4986855;28;20093;-71
2024/01/05 01:58:23;;;;;;;14.18;4.03;;;;;;;7.21;100.00;99750.50;4987854;28;20038;-71
2024/01/05 02:00:51;;;;;;;19.33;4.97;;;;;;;7.25;100.00;99743.38;4993375;28;20061;-71
2024/01/05 02:03:19;;;;;;;17.67;4.38;;;;;;;7.23;100.00;99738.16;4996525;28;20722;-71
2024/01/05 02:05:47;;;;;;;14.90;4.30;;;;;;;7.22;100.00;99735.59;4995373;28;20051;-71
2024/01/05 02:08:16;;;;;;;26.33;4.60;;;;;;;7.21;100.00;99736.50;4998165;28;20423;-72
2024/01/05 02:10:43;;;;;;;16.15;4.47;;;;;;;7.17;100.00;99722.66;5001228;28;20065;-71
2024/01/05 02:13:10;;;;;;;13.73;3.47;;;;;;;7.15;100.00;99719.22;4987308;28;20101;-72
2024/01/05 02:15:38;;;;;;;9.45;3.15;;;;;;;7.15;100.00;99712.22;4998181;28;20077;-71
2024/01/05 02:18:13;;;;;;;16.08;3.50;;;;;;;7.18;100.00;99713.00;4988530;28;20729;-72
2024/01/05 02:20:44;;;;;;;14.60;4.30;;;;;;;7.21;100.00;99713.78;4990280;28;20708;-71
2024/01/05 02:23:26;;;;;;;15.50;3.58;;;;;;;7.27;100.00;99707.47;5000863;28;20034;-71
2024/01/05 02:25:55;;;;;;;17.30;3.60;;;;;;;7.29;100.00;99698.66;4988069;28;20051;-72
2024/01/05 02:28:23;;;;;;;15.23;3.30;;;;;;;7.30;100.00;99692.50;4988828;28;20042;-72
2024/01/05 02:30:54;;;;;;;17.02;3.20;;;;;;;7.31;100.00;99688.09;4989420;28;20132;-72
2024/01/05 02:33:23;;;;;;;12.90;2.88;;;;;;;7.31;100.00;99693.34;4987678;28;20062;-71
2024/01/05 02:35:52;;;;;;;15.35;3.72;;;;;;;7.30;100.00;99686.38;4996606;28;20096;-71
2024/01/05 02:38:19;;;;;;;15.38;3.40;;;;;;;7.29;100.00;99682.91;4986883;28;20054;-71
2024/01/05 02:40:46;;;;;;;14.10;3.50;;;;;;;7.28;100.00;99681.19;5007571;28;20125;-71
2024/01/05 02:43:13;;;;;;;12.90;3.45;;;;;;;7.27;100.00;99674.25;4990889;28;20235;-71
2024/01/05 02:45:40;;;;;;;15.10;3.60;;;;;;;7.27;100.00;99673.41;5019772;28;20046;-71
2024/01/05 02:48:08;;;;;;;18.65;4.43;;;;;;;7.24;100.00;99669.09;4999307;28;20462;-71
2024/01/05 02:50:36;;;;;;;16.42;3.80;;;;;;;7.21;100.00;99665.72;4980410;28;20073;-70
2024/01/05 02:53:03;;;;;;;14.82;3.80;;;;;;;7.20;100.00;99659.66;4982869;28;20131;-70
2024/01/05 02:55:30;;;;;;;12.82;3.65;;;;;;;7.18;100.00;99652.72;5002902;28;20054;-71
2024/01/05 02:57:57;;;;;;;12.45;3.80;;;;;;;7.13;100.00;99648.50;5006584;28;20038;-71
2024/01/05 03:00:24;;;;;;;12.77;3.63;;;;;;;7.11;100.00;99652.94;4992836;28;20042;-70
2024/01/05 03:02:52;;;;;;;12.52;4.03;;;;;;;7.09;100.00;99651.31;4991024;28;20045;-71
2024/01/05 03:05:19;;;;;;;13.68;3.60;;;;;;;7.10;100.00;99646.00;4993382;28;20046;-71
2024/01/05 03:07:46;;;;;;;15.55;3.80;;;;;;;7.09;100.00;99643.44;4990225;28;20076;-71
2024/01/05 03:10:14;;;;;;;15.75;3.95;;;;;;;7.09;100.00;99640.81;4990715;28;20112;-70
2024/01/05 03:12:41;;;;;;;13.25;3.38;;;;;;;7.07;100.00;99633.00;4994396;28;20466;-71
2024/01/05 03:15:09;;;;;;;13.45;4.00;;;;;;;7.07;100.00;99629.53;4997714;28;20402;-70
2024/01/05 03:17:36;;;;;;;13.10;3.40;;;;;;;7.07;100.00;99627.75;4994185;28;20224;-71
2024/01/05 03:20:04;;;;;;;16.95;3.90;;;;;;;7.06;100.00;99625.19;4990455;28;20038;-70
2024/01/05 03:22:31;;;;;;;12.60;4.15;;;;;;;7.07;100.00;99616.41;4989047;28;20054;-70
2024/01/05 03:24:58;;;;;;;12.63;3.03;;;;;;;7.06;100.00;99619.94;4990153;28;20053;-70
2024/01/05 03:27:25;;;;;;;10.07;2.83;;;;;;;7.08;100.00;99612.91;4993480;28;20046;-70
2024/01/05 03:29:52;;;;;;;12.75;3.28;;;;;;;7.07;100.00;99619.03;5007340;28;20046;-70
2024/01/05 03:32:20;;;;;;;15.60;3.28;;;;;;;7.07;100.00;99609.41;5005700;28;20482;-70
2024/01/05 03:34:47;;;;;;;12.30;3.03;;;;;;;7.07;100.00;99601.53;4993065;28;20041;-70
2024/01/05 03:37:14;;;;;;;11.50;2.83;;;;;;;7.08;100.00;99597.16;4986663;28;20133;-70
2024/01/05 03:39:41;;;;;;;12.00;3.03;;;;;;;7.08;100.00;99595.38;5002445;28;20619;-72
2024/01/05 03:42:09;;;;;;;12.13;2.90;;;;;;;7.10;100.00;99600.59;4996783;28;20042;-71
2024/01/05 03:44:36;;;;;;;13.45;3.00;;;;;;;7.11;100.00;99590.06;4987997;28;20046;-71
2024/01/05 03:47:04;;;;;;;15.82;2.70;;;;;;;7.12;100.00;99583.91;5001232;28;20395;-71
2024/01/05 03:49:31;;;;;;;6.47;2.53;;;;;;;7.14;100.00;99582.09;4999048;28;20080;-71
2024/01/05 03:51:58;;;;;;;10.18;3.22;;;;;;;7.15;100.00;99580.31;4996055;28;20042;-71
2024/01/05 03:54:25;;;;;;;11.85;2.83;;;;;;;7.16;100.00;99574.16;4997743;28;20214;-71
2024/01/05 03:56:52;;;;;;;12.10;2.90;;;;;;;7.13;100.00;99567.28;4989014;28;20086;-71
2024/01/05 03:59:19;;;;;;;12.68;2.70;;;;;;;7.11;100.00;99571.69;4995492;28;20041;-71
2024/01/05 04:01:49;;;;;;;14.15;3.90;;;;;;;7.10;100.00;99566.53;5005334;28;20064;-71
2024/01/05 04:04:16;;;;;;;11.05;2.55;;;;;;;7.08;100.00;99557.84;5000718;28;20642;-71
2024/01/05 04:06:44;;;;;;;11.43;2.95;;;;;;;7.06;100.00;99562.28;4988659;28;20133;-71
2024/01/05 04:09:12;;;;;;;11.90;3.17;;;;;;;6.98;100.00;99558.19;5002170;28;20048;-71
2024/01/05 04:11:39;;;;;;;15.25;3.00;;;;;;;6.89;100.00;99548.03;4997017;28;20124;-71
2024/01/05 04:14:07;;;;;;;10.23;2.80;;;;;;;6.81;100.00;99542.22;4993834;28;20038;-71
2024/01/05 04:16:35;;;;;;;10.65;3.22;;;;;;;6.74;100.00;99540.72;4989233;28;20046;-71
2024/01/05 04:19:02;;;;;;;18.67;3.25;;;;;;;6.72;100.00;99538.16;4998542;28;20112;-72
2024/01/05 04:21:30;;;;;;;13.55;3.00;;;;;;;6.73;100.00;99534.63;5007103;28;20073;-72
2024/01/05 04:23:58;;;;;;;11.13;2.67;;;;;;;6.74;100.00;99530.25;4989500;28;20046;-72
2024/01/05 04:26:26;;;;;;;9.25;2.63;;;;;;;6.71;100.00;99531.22;4991799;28;20227;-71
2024/01/05 04:28:53;;;;;;;11.50;3.00;;;;;;;6.74;100.00;99527.63;4988618;28;20125;-70
2024/01/05 04:31:20;;;;;;;12.45;2.55;;;;;;;6.77;100.00;99523.13;4992529;28;20038;-70
2024/01/05 04:33:47;;;;;;;9.02;2.78;;;;;;;6.78;100.00;99526.63;4998655;28;20586;-70
2024/01/05 04:36:15;;;;;;;10.25;2.85;;;;;;;6.79;100.00;99523.09;4990996;28;20045;-71
2024/01/05 04:38:43;;;;;;;10.88;2.60;;;;;;;6.79;100.00;99517.84;4994202;28;20187;-70
2024/01/05 04:41:13;;;;;;;13.27;2.97;;;;;;;6.79;100.00;99516.06;4989488;28;20030;-72
2024/01/05 04:43:41;;;;;;;10.52;2.47;;;;;;;6.80;100.00;99520.41;4995624;28;20121;-70
2024/01/05 04:46:09;;;;;;;11.32;2.70;;;;;;;6.82;100.00;99509.84;4990949;28;20521;-69
2024/01/05 04:48:36;;;;;;;9.07;2.47;;;;;;;6.84;100.00;99508.03;4986352;28;20054;-69
2024/01/05 04:51:03;;;;;;;8.20;2.22;;;;;;;6.86;100.00;99505.38;4990311;28;20049;-70
2024/01/05 04:53:30;;;;;;;14.07;2.50;;;;;;;6.90;100.00;99506.97;4992391;28;20045;-69
2024/01/05 04:55:58;;;;;;;9.80;2.35;;;;;;;6.94;100.00;99503.34;5000641;28;20501;-70
2024/01/05 04:58:25;;;;;;;8.40;2.13;;;;;;;6.97;100.00;99492.72;5008733;28;20039;-70
2024/01/05 05:00:53;;;;;;;7.88;1.80;;;;;;;6.97;100.00;99487.47;4992537;28;20042;-70
2024/01/05 05:03:21;;;;;;;8.95;2.00;;;;;;;6.98;100.00;99490.06;4994240;28;20072;-70
2024/01/05 05:05:49;;;;;;;8.60;2.30;;;;;;;6.99;100.00;99497.03;4986913;28;20050;-70
2024/01/05 05:08:16;;;;;;;8.45;2.10;;;;;;;7.02;100.00;99487.34;4992142;28;20053;-70
2024/01/05 05:10:43;;;;;;;9.00;2.00;;;;;;;7.05;100.00;99492.44;4988627;28;20053;-70
2024/01/05 05:13:10;;;;;;;7.72;2.03;;;;;;;7.06;100.00;99481.94;4993716;28;20533;-70
2024/01/05 05:15:38;;;;;;;7.10;2.00;;;;;;;7.06;100.00;99470.56;4993378;28;20133;-70
2024/01/05 05:18:06;;;;;;;7.40;1.88;;;;;;;7.04;100.00;99473.25;4973334;28;20061;-70
2024/01/05 05:20:34;;;;;;;9.00;2.10;;;;;;;7.04;100.00;99464.53;4976485;28;20104;-70
2024/01/05 05:23:03;;;;;;;6.22;1.88;;;;;;;7.03;100.00;99468.94;4986594;28;20046;-70
2024/01/05 05:25:33;;;;;;;8.15;2.08;;;;;;;7.03;100.00;99462.81;4999962;28;20057;-70
2024/01/05 05:28:00;;;;;;;10.88;2.33;;;;;;;7.01;100.00;99460.25;5002721;28;20038;-70
2024/01/05 05:30:27;;;;;;;9.32;2.00;;;;;;;6.99;100.00;99456.84;4987821;28;20054;-70
2024/01/05 05:32:55;;;;;;;9.38;2.10;;;;;;;6.99;100.00;99462.09;4985462;28;20050;-70
2024/01/05 05:35:22;;;;;;;7.68;2.25;;;;;;;7.00;100.00;99455.94;4984475;28;20042;-70
2024/01/05 05:37:49;;;;;;;10.02;1.98;;;;;;;7.02;100.00;99454.13;4984067;28;20053;-70
2024/01/05 05:40:17;;;;;;;7.00;1.83;;;;;;;7.05;100.00;99454.00;4991665;28;20081;-70
2024/01/05 05:42:44;;;;;;;8.27;1.98;;;;;;;7.05;100.00;99446.16;5004608;28;20057;-70
2024/01/05 05:45:22;;;;;;;9.02;2.08;;;;;;;7.08;100.00;99442.56;4988412;28;20042;-70
2024/01/05 05:47:51;;;;;;;9.40;2.25;;;;;;;7.07;100.00;99431.19;4989223;28;20042;-70
2024/01/05 05:50:18;;;;;;;7.78;1.73;;;;;;;7.10;100.00;99433.72;4986856;28;20061;-70
2024/01/05 05:52:47;;;;;;;7.22;1.60;;;;;;;7.12;100.00;99433.66;4992052;28;20193;-70
2024/01/05 05:55:14;;;;;;;11.13;1.67;;;;;;;7.13;100.00;99433.59;4989037;28;20529;-70
2024/01/05 05:57:42;;;;;;;9.82;1.65;;;;;;;7.14;100.00;99434.44;4992835;28;20137;-70
2024/01/05 06:00:11;;;;;;;8.18;1.83;;;;;;;7.14;100.00;99432.69;4987978;28;20204;-70
2024/01/05 06:02:38;;;;;;;8.93;2.08;;;;;;;7.16;100.00;99430.00;4983687;28;20556;-70
2024/01/05 06:05:06;;;;;;;6.10;1.60;;;;;;;7.17;100.00;99429.09;5005728;28;20042;-69
2024/01/05 06:07:33;;;;;;;8.32;1.55;;;;;;;7.19;100.00;99431.63;5013207;28;20039;-70
2024/01/05 06:10:00;;;;;;;6.40;1.67;;;;;;;7.20;100.00;99435.97;4991323;28;20122;-70
2024/01/05 06:12:27;;;;;;;7.32;1.42;;;;;;;7.21;100.00;99433.31;4990218;28;20042;-69
2024/01/05 06:14:54;;;;;;;8.60;2.03;;;;;;;7.23;100.00;99431.47;4991484;28;20105;-70
2024/01/05 06:17:21;;;;;;;9.50;1.88;;;;;;;7.27;100.00;99442.69;4992244;28;20068;-70
2024/01/05 06:19:49;;;;;;;6.70;1.60;;;;;;;7.30;100.00;99440.81;4988607;28;20546;-70
2024/01/05 06:22:16;;;;;;;4.47;1.40;;;;;;;7.34;100.00;99438.91;5003996;28;20123;-70
2024/01/05 06:24:46;;;;;;;6.72;1.60;;;;;;;7.34;100.00;99438.91;4999302;28;20495;-70
2024/01/05 06:27:13;;;;;;;9.63;2.08;;;;;;;7.37;100.00;99430.94;4992986;28;20054;-70
2024/01/05 06:29:51;;;;;;;6.18;1.80;;;;;;;7.39;100.00;99441.38;4990970;28;20426;-70
2024/01/05 06:32:18;;;;;;;9.45;1.75;;;;;;;7.41;100.00;99440.38;4991521;28;20120;-70
2024/01/05 06:34:46;;;;;;;5.93;1.60;;;;;;;7.42;100.00;99434.22;5005728;28;20922;-70
2024/01/05 06:37:13;;;;;;;9.93;2.00;;;;;;;7.43;100.00;99437.69;5020539;28;20423;-70
2024/01/05 06:39:40;;;;;;;7.20;1.48;;;;;;;7.44;100.00;99428.91;5019413;28;20054;-70
2024/01/05 06:42:07;;;;;;;7.55;1.70;;;;;;;7.42;100.00;99436.00;4991219;28;20042;-69
2024/01/05 06:44:35;;;;;;;7.43;1.75;;;;;;;7.44;100.00;99429.78;4990831;28;20485;-70
2024/01/05 06:47:02;;;;;;;8.63;1.73;;;;;;;7.47;100.00;99434.03;4989245;28;20061;-69
2024/01/05 06:49:29;;;;;;;6.90;1.58;;;;;;;7.49;100.00;99439.22;5006210;28;20043;-70
2024/01/05 06:51:57;;;;;;;7.15;1.55;;;;;;;7.52;100.00;99441.72;4985226;28;20501;-70
2024/01/05 06:54:24;;;;;;;5.68;1.10;;;;;;;7.57;100.00;99435.38;4987840;28;20045;-70
2024/01/05 06:56:52;;;;;;;4.05;1.20;;;;;;;7.60;100.00;99434.38;4988038;28;20072;-70
2024/01/05 06:59:20;;;;;;;4.10;1.33;;;;;;;7.66;100.00;99438.53;4987487;28;20038;-70
2024/01/05 07:01:48;;;;;;;3.00;0.90;;;;;;;7.69;100.00;99434.00;4989694;28;20049;-70
2024/01/05 07:04:15;;;;;;;5.90;1.05;;;;;;;7.74;100.00;99439.94;4988891;28;20057;-70
2024/01/05 07:06:42;;;;;;;3.95;0.63;;;;;;;7.78;100.00;99444.13;4969762;28;20142;-70
2024/01/05 07:09:11;;;;;;;4.20;0.90;;;;;;;7.81;100.00;99437.94;4989138;28;20055;-70
2024/01/05 07:11:38;;;;;;;2.13;0.75;;;;;;;7.84;100.00;99439.56;5007144;28;20050;-70
2024/01/05 07:14:06;;;;;;;4.97;1.23;;;;;;;7.85;100.00;99442.09;4990310;28;20104;-70
2024/01/05 07:16:33;;;;;;;3.58;0.80;;;;;;;7.89;100.00;99440.22;4989242;28;20133;-69
2024/01/05 07:19:00;;;;;;;2.50;0.80;;;;;;;7.88;100.00;99442.00;4987968;28;20084;-70
2024/01/05 07:21:28;;;;;;;2.60;0.57;;;;;;;7.91;100.00;99449.75;4989797;28;20039;-70
2024/01/05 07:23:55;;;;;;;2.88;0.75;;;;;;;7.93;100.00;99447.03;4988428;28;20101;-70
2024/01/05 07:26:23;;;;;;;1.58;0.77;;;;;;;7.92;100.00;99451.47;5003983;28;20061;-70
2024/01/05 07:28:50;;;;;;;1.98;0.73;;;;;;;7.92;100.00;99455.84;4988034;28;20089;-70
2024/01/05 07:31:23;;;;;;;1.63;0.55;;;;;;;7.92;100.00;99455.84;4989532;28;20039;-71
2024/01/05 07:33:51;;;;;;;1.52;0.60;;;;;;;7.92;100.00;99455.84;4986132;28;20144;-70
2024/01/05 07:36:19;;;;;;;2.42;0.50;;;;;;;7.91;100.00;99459.38;4985494;28;20042;-70
2024/01/05 07:38:46;;;;;;;3.30;0.55;;;;;;;7.90;100.00;99461.16;4987732;28;20744;-70
2024/01/05 07:41:17;;;;;;;6.68;0.70;;;;;;;7.91;100.00;99465.50;4986848;28;20049;-70
2024/01/05 07:43:44;;;;;;;1.42;0.30;;;;;;;7.92;100.00;99453.22;4989736;28;20046;-71
2024/01/05 07:46:12;;;;;;;0.80;0.20;;;;;;;7.92;100.00;99461.97;4988214;28;20042;-70
2024/01/05 07:48:40;;;;;;;1.52;0.30;;;;;;;7.95;100.00;99465.34;4989053;28;20050;-70
2024/01/05 07:51:10;;;;;;;2.60;0.28;;;;;;;7.93;100.00;99468.03;4989074;28;20035;-71
2024/01/05 07:53:38;;;;;;;0.65;0.20;;;;;;;7.93;100.00;99463.66;4986353;28;20037;-71
2024/01/05 07:56:08;;;;;;;2.22;0.30;;;;;;;7.94;100.00;99469.75;4988026;28;20081;-71
2024/01/05 07:58:35;;;;;;;2.40;0.40;;;;;;;7.92;100.00;99468.94;4989463;28;20046;-70
2024/01/05 08:01:02;;;;;;;1.50;0.30;;;;;;;7.95;100.00;99471.47;4984429;28;20034;-70
2024/01/05 08:03:30;;;;;;;0.88;0.30;;;;;;;7.93;100.00;99461.03;4989972;28;20045;-70
2024/01/05 08:06:05;;;;;;;0.35;0.20;;;;;;;7.98;100.00;99486.22;4988713;28;20043;-70
2024/01/05 08:08:32;;;;;;;2.33;0.40;;;;;;;7.98;100.00;99466.09;4985100;28;20698;-70
2024/01/05 08:10:59;;;;;;;1.63;0.40;;;;;;;7.98;100.00;99470.47;4986709;28;20042;-70
2024/01/05 08:13:27;;;;;;;3.22;0.40;;;;;;;7.99;100.00;99467.78;4988190;28;20121;-70
2024/01/05 08:15:54;;;;;;;1.80;0.40;;;;;;;8.04;100.00;99483.34;4987268;28;20511;-70
2024/01/05 08:18:21;;;;;;;1.02;0.40;;;;;;;8.16;100.00;99474.09;4988760;28;20057;-70
2024/01/05 08:20:49;;;;;;;1.35;0.40;;;;;;;8.26;100.00;99464.06;4988488;28;20049;-70
2024/01/05 08:23:16;;;;;;;1.15;0.45;;;;;;;8.32;100.00;99469.91;4987370;28;20125;-74
2024/01/05 08:25:43;;;;;;;11.40;0.82;;;;;;;8.29;100.00;99458.69;4984173;28;20039;-69
2024/01/05 08:28:11;;;;;;;1.27;0.40;;;;;;;8.25;100.00;99478.97;4985107;28;20426;-69
2024/01/05 08:30:39;;;;;;;3.33;0.43;;;;;;;8.23;100.00;99463.28;4989918;28;20105;-68
2024/01/05 08:33:06;;;;;;;1.63;0.30;;;;;;;8.23;100.00;99465.03;4988772;28;20077;-69
2024/01/05 08:35:35;;;;;;;0.70;0.20;;;;;;;8.22;100.00;99455.47;4989501;28;20039;-69
2024/01/05 08:38:02;;;;;;;1.08;0.28;;;;;;;8.24;100.00;99459.72;4986729;28;20054;-68
2024/01/05 08:40:30;;;;;;;0.93;0.32;;;;;;;8.24;100.00;99457.09;4988692;28;20050;-68
2024/01/05 08:42:58;;;;;;;2.10;0.40;;;;;;;8.22;100.00;99458.97;4984838;28;20097;-68
2024/01/05 08:45:27;;;;;;;0.70;0.30;;;;;;;8.18;100.00;99467.88;4984810;28;20046;-68
2024/01/05 08:47:54;;;;;;;0.65;0.20;;;;;;;8.17;100.00;99453.03;4988365;28;20045;-69
2024/01/05 08:50:21;;;;;;;2.40;0.40;;;;;;;8.13;100.00;99461.09;4986527;28;20050;-70
2024/01/05 08:52:49;;;;;;;1.30;0.30;;;;;;;8.05;100.00;99454.41;5001544;28;20046;-70
2024/01/05 08:55:17;;;;;;;1.75;0.52;;;;;;;8.02;100.00;99457.16;4987740;28;20049;-70
2024/01/05 08:57:49;;;;;;;1.98;0.47;;;;;;;7.99;100.00;99459.06;4988114;28;20038;-70
2024/01/05 09:00:18;;;;;;;1.13;0.40;;;;;;;7.96;100.00;99452.19;4986797;28;20160;-69
2024/01/05 09:02:46;;;;;;;3.10;0.80;;;;;;;7.99;100.00;99457.28;4987596;28;20475;-69
2024/01/05 09:05:13;;;;;;;0.52;0.30;;;;;;;8.01;100.00;99446.72;4970298;28;20038;-70
2024/01/05 09:07:40;;;;;;;1.25;0.30;;;;;;;7.99;100.00;99454.66;4988082;28;20088;-70
2024/01/05 09:10:08;;;;;;;1.20;0.40;;;;;;;7.96;100.00;99454.81;4986449;28;20050;-70
2024/01/05 09:12:37;;;;;;;2.58;0.40;;;;;;;7.94;100.00;99454.00;4990290;28;20171;-70
2024/01/05 09:15:08;;;;;;;1.95;0.30;;;;;;;7.94;100.00;99456.63;4986916;28;20049;-71
2024/01/05 09:17:35;;;;;;;1.48;0.47;;;;;;;7.92;100.00;99467.19;4988186;28;20050;-71
2024/01/05 09:20:03;;;;;;;1.30;0.40;;;;;;;7.93;100.00;99462.78;5003451;28;20148;-70
2024/01/05 09:22:31;;;;;;;1.70;0.32;;;;;;;7.89;100.00;99469.06;4986560;28;20562;-69
2024/01/05 09:24:58;;;;;;;2.65;0.38;;;;;;;7.88;100.00;99473.47;4988123;28;20042;-70
2024/01/05 09:27:25;;;;;;;1.17;0.30;;;;;;;7.88;100.00;99477.88;4988504;28;20042;-70
2024/01/05 09:29:52;;;;;;;1.08;0.30;;;;;;;7.88;100.00;99481.34;4986787;28;20042;-70
2024/01/05 09:32:21;;;;;;;24.52;19.23;;;;;;;7.88;100.00;99497.09;4986310;28;20074;-70
2024/01/05 09:34:49;;;;;;;30.33;27.42;;;;;;;7.85;100.00;99499.84;4984808;28;20034;-70
2024/01/05 09:37:16;;;;;;;10.95;10.05;;;;;;;7.82;100.00;99499.09;4985846;28;20042;-70
2024/01/05 09:39:43;;;;;;;3.33;1.13;;;;;;;7.75;100.00;99511.63;4988552;28;20125;-71
2024/01/05 09:42:11;;;;;;;1.02;0.60;;;;;;;7.64;100.00;99513.81;4985322;28;20513;-70
2024/01/05 09:44:38;;;;;;;0.90;0.40;;;;;;;7.46;100.00;99524.09;4984503;28;20145;-70
2024/01/05 09:47:07;;;;;;;1.67;1.58;;;;;;;7.28;100.00;99523.03;4982775;28;20042;-70
2024/01/05 09:49:40;;;;;;;1.92;0.50;;;;;;;7.13;100.00;99508.72;4985341;28;20046;-70
2024/01/05 09:52:09;;;;;;;2.03;1.67;;;;;;;7.02;100.00;99521.41;4985106;28;20049;-70
2024/01/05 09:54:37;;;;;;;3.33;3.03;;;;;;;6.95;100.00;99520.78;4985634;28;20570;-70
2024/01/05 09:57:09;;;;;;;1.30;1.20;;;;;;;6.91;100.00;99513.91;4985693;28;20126;-72
2024/01/05 09:59:38;;;;;;;1.27;0.30;;;;;;;6.87;100.00;99515.81;4985804;28;20507;-69
2024/01/05 10:02:17;;;;;;;40.78;26.08;;;;;;;6.81;100.00;99511.63;5002069;28;20043;-72
2024/01/05 10:04:44;;;;;;;27.75;23.15;;;;;;;6.78;100.00;99510.91;5001552;28;20136;-72
2024/01/05 10:07:11;;;;;;;6.97;5.97;;;;;;;6.79;100.00;99510.00;4986778;28;20039;-71
2024/01/05 10:09:50;;;;;;;7.20;6.60;;;;;;;6.79;100.00;99510.81;4982288;28;20042;-72
2024/01/05 10:12:18;;;;;;;8.98;8.13;;;;;;;6.84;100.00;99506.28;4983099;28;20050;-71
2024/01/05 10:14:47;;;;;;;7.15;6.47;;;;;;;6.89;100.00;99503.50;4985132;28;20042;-72
2024/01/05 10:17:15;;;;;;;4.38;3.17;;;;;;;6.91;100.00;99500.81;4986550;28;20046;-72
2024/01/05 10:19:43;;;;;;;3.25;2.95;;;;;;;6.94;100.00;99501.56;4985340;28;20109;-72
2024/01/05 10:22:13;;;;;;;2.33;1.65;;;;;;;6.96;100.00;99496.28;4969263;28;20121;-72
2024/01/05 10:24:42;;;;;;;1.80;1.27;;;;;;;7.01;100.00;99496.09;4985135;28;20038;-72
2024/01/05 10:27:12;;;;;;;1.33;0.77;;;;;;;7.04;100.00;99493.34;4988677;28;20065;-72
2024/01/05 10:29:43;;;;;;;2.80;0.60;;;;;;;7.06;100.00;99492.41;4988198;28;20065;-72
2024/01/05 10:32:16;;;;;;;2.75;1.25;;;;;;;7.06;100.00;99491.53;4988075;28;20051;-72
2024/01/05 10:34:48;;;;;;;2.53;1.13;;;;;;;7.07;100.00;99496.72;4988868;28;20108;-72
2024/01/05 10:37:19;;;;;;;2.70;2.10;;;;;;;7.10;100.00;99493.16;4988386;28;20046;-72
2024/01/05 10:39:51;;;;;;;39.40;32.67;;;;;;;7.08;100.00;99498.44;4990211;28;20053;-71
2024/01/05 10:42:28;;;;;;;3.45;2.17;;;;;;;7.10;100.00;99499.22;4987550;28;20034;-71
2024/01/05 10:44:59;;;;;;;3.65;2.40;;;;;;;7.14;100.00;99494.72;4984642;28;20061;-71
2024/01/05 10:47:31;;;;;;;3.38;3.08;;;;;;;7.17;100.00;99499.84;4988228;28;20526;-71
2024/01/05 10:49:59;;;;;;;1.85;0.70;;;;;;;7.22;100.00;99505.78;4987392;28;20034;-72
2024/01/05 10:52:33;;;;;;;2.95;1.00;;;;;;;7.26;100.00;99499.50;4988102;28;20042;-72
2024/01/05 10:55:03;;;;;;;2.92;1.10;;;;;;;7.31;100.00;99499.31;4986265;28;20714;-72
2024/01/05 10:57:36;;;;;;;1.60;0.90;;;;;;;7.38;100.00;99499.94;5000446;28;20126;-72
2024/01/05 11:00:05;;;;;;;2.50;0.80;;;;;;;7.40;100.00;99498.97;4989974;28;20468;-71
2024/01/05 11:02:40;;;;;;;2.47;0.90;;;;;;;7.43;100.00;99501.47;4989533;28;20113;-71
2024/01/05 11:05:13;;;;;;;4.80;1.70;;;;;;;7.48;100.00;99500.47;4972719;28;20133;-71
2024/01/05 11:07:42;;;;;;;3.35;1.30;;;;;;;7.50;100.00;99502.09;4983591;28;20050;-70
2024/01/05 11:11:00;;;;;;;1.98;0.80;;;;;;;7.49;100.00;99499.53;4989186;28;20065;-70
2024/01/05 11:14:14;;;;;;;1.52;0.80;;;;;;;7.44;100.00;99503.19;5014216;28;20548;-70
2024/01/05 11:17:06;;;;;;;1.92;0.55;;;;;;;7.45;100.00;99502.28;5006197;28;20458;-71
2024/01/05 11:20:06;;;;;;;1.75;0.93;;;;;;;7.44;100.00;99503.19;4987161;28;20053;-71
2024/01/05 11:22:39;;;;;;;2.08;1.00;;;;;;;7.44;100.00;99502.31;5003261;28;20042;-70
2024/01/05 11:25:08;;;;;;;1.27;0.70;;;;;;;7.44;100.00;99492.72;5005097;28;20126;-70
2024/01/05 11:27:36;;;;;;;2.22;1.45;;;;;;;7.44;100.00;99503.19;4986753;28;20038;-70
2024/01/05 11:30:04;;;;;;;43.25;28.92;;;;;;;7.42;100.00;99498.94;5001061;28;20433;-70
2024/01/05 11:32:47;;;;;;;293.45;182.13;;;;;;;7.42;100.00;99505.03;5003547;28;20556;-70
2024/01/05 11:35:21;;;;;;;4.10;3.05;;;;;;;7.44;100.00;99497.94;4988627;28;20042;-70